Terminal Aerodrome Forecast
Issued by NWS Albany, NY

Home | Current Version | Previous Version | Text Only | Print | Product List | Glossary On
Versions: 1 2 3 4 5 6 7 8 9 10 11 12 13 14 15 16
495
FTUS41 KALY 241506 AAB
TAFALB
TAF AMD
KALB 241506Z 2415/2512 VRB04KT P6SM VCSH SCT015 OVC080
      TEMPO 2415/2417 BKN015
     FM241800 17006KT P6SM SCT015 BKN025 OVC080
     FM242000 18010G16KT P6SM SCT025 BKN050
     FM250300 17009KT P6SM BKN025=

USA.gov is the U.S. government's official web portal to all federal, state and local government web resources and services.